createdAt,value
2023-01-30T00:02:08.884Z,18.60
2023-01-30T00:04:36.307Z,19.70
2023-01-30T00:07:03.506Z,20.13
2023-01-30T00:09:30.721Z,19.53
2023-01-30T00:11:57.922Z,20.43
2023-01-30T00:14:25.102Z,19.33
2023-01-30T00:16:52.289Z,20.50
2023-01-30T00:19:19.651Z,19.00
2023-01-30T00:21:47.220Z,19.27
2023-01-30T00:24:14.487Z,19.73
2023-01-30T00:27:01.666Z,18.63
2023-01-30T00:29:29.141Z,19.37
2023-01-30T00:31:58.490Z,19.40
2023-01-30T00:34:25.674Z,18.50
2023-01-30T00:37:07.139Z,18.67
2023-01-30T00:39:35.186Z,19.23
2023-01-30T00:42:21.035Z,18.50
2023-01-30T00:45:06.690Z,19.80
2023-01-30T00:47:33.941Z,19.20
2023-01-30T00:50:01.103Z,18.37
2023-01-30T00:52:28.432Z,18.77
2023-01-30T00:54:55.556Z,18.90
2023-01-30T00:57:25.927Z,19.07
2023-01-30T00:59:53.142Z,19.20
2023-01-30T01:02:20.724Z,18.97
2023-01-30T01:04:48.130Z,20.33
2023-01-30T01:07:16.102Z,18.53
2023-01-30T01:09:43.294Z,18.80
2023-01-30T01:12:10.500Z,19.30
2023-01-30T01:14:37.691Z,18.70
2023-01-30T01:17:05.157Z,19.80
2023-01-30T01:19:32.458Z,18.57
2023-01-30T01:21:59.847Z,19.43
2023-01-30T01:24:28.077Z,18.83
2023-01-30T01:26:55.440Z,18.43
2023-01-30T01:29:25.588Z,19.07
2023-01-30T01:31:52.775Z,19.50
2023-01-30T01:34:19.992Z,18.03
2023-01-30T01:36:53.861Z,18.40
2023-01-30T01:39:22.288Z,17.73
2023-01-30T01:41:49.550Z,17.83
2023-01-30T01:44:17.620Z,18.57
2023-01-30T01:46:58.772Z,19.13
2023-01-30T01:49:37.316Z,18.87
2023-01-30T01:52:16.928Z,19.10
2023-01-30T01:54:59.358Z,18.23
2023-01-30T01:57:39.806Z,19.03
2023-01-30T02:00:16.395Z,18.67
2023-01-30T02:02:52.900Z,17.97
2023-01-30T02:05:21.495Z,18.17
2023-01-30T02:07:52.133Z,18.83
2023-01-30T02:10:46.025Z,17.70
2023-01-30T02:13:13.314Z,17.27
2023-01-30T02:15:41.075Z,17.13
2023-01-30T02:18:08.592Z,17.70
2023-01-30T02:21:06.561Z,17.70
2023-01-30T02:24:13.921Z,16.80
2023-01-30T02:27:02.332Z,17.97
2023-01-30T02:29:57.235Z,17.50
2023-01-30T02:33:07.838Z,17.17
2023-01-30T02:36:30.701Z,17.40
2023-01-30T02:39:21.890Z,16.30
2023-01-30T02:42:38.223Z,16.83
2023-01-30T02:45:16.195Z,17.37
2023-01-30T02:47:48.975Z,16.83
2023-01-30T02:50:30.622Z,17.80
2023-01-30T02:52:58.971Z,16.03
2023-01-30T02:55:29.344Z,16.97
2023-01-30T02:57:56.823Z,17.07
2023-01-30T03:01:03.787Z,17.17
2023-01-30T03:04:08.239Z,17.97
2023-01-30T03:07:12.108Z,17.53
2023-01-30T03:09:48.247Z,17.23
2023-01-30T03:13:10.538Z,16.97
2023-01-30T03:15:48.429Z,16.77
2023-01-30T03:18:18.291Z,17.67
2023-01-30T03:20:45.604Z,17.00
2023-01-30T03:23:14.314Z,16.97
2023-01-30T03:25:44.176Z,17.80
2023-01-30T03:28:14.461Z,17.67
2023-01-30T03:30:41.921Z,17.07
2023-01-30T03:33:09.161Z,17.03
2023-01-30T03:35:36.815Z,16.80
2023-01-30T03:38:04.376Z,16.53
2023-01-30T03:40:32.050Z,17.40
2023-01-30T03:42:59.272Z,17.10
2023-01-30T03:45:26.428Z,16.43
2023-01-30T03:47:53.688Z,15.90
2023-01-30T03:50:20.919Z,16.50
2023-01-30T03:52:48.186Z,16.80
2023-01-30T03:55:15.821Z,16.60
2023-01-30T03:57:43.209Z,16.33
2023-01-30T04:00:11.621Z,16.60
2023-01-30T04:02:38.950Z,17.23
2023-01-30T04:05:06.876Z,16.27
2023-01-30T04:07:34.088Z,16.10
2023-01-30T04:10:01.294Z,16.40
2023-01-30T04:12:28.503Z,15.63
2023-01-30T04:14:55.868Z,17.47
2023-01-30T04:17:23.223Z,17.33
2023-01-30T04:19:50.476Z,17.20
2023-01-30T04:22:17.754Z,16.67
2023-01-30T04:24:44.983Z,15.80
2023-01-30T04:27:12.152Z,16.30
2023-01-30T04:29:39.421Z,16.50
2023-01-30T04:32:06.661Z,15.80
2023-01-30T04:34:34.038Z,16.17
2023-01-30T04:37:01.581Z,15.73
2023-01-30T04:39:28.767Z,15.03
2023-01-30T04:41:56.041Z,16.07
2023-01-30T04:44:23.291Z,16.13
2023-01-30T04:46:50.455Z,15.23
2023-01-30T04:49:17.777Z,15.03
2023-01-30T04:51:44.966Z,14.87
2023-01-30T04:54:12.556Z,14.70
2023-01-30T04:56:39.962Z,14.77
2023-01-30T04:59:07.200Z,13.93
2023-01-30T05:01:38.002Z,13.87
2023-01-30T05:04:07.207Z,13.53
2023-01-30T05:06:38.745Z,13.47
2023-01-30T05:09:06.338Z,13.00
2023-01-30T05:11:33.965Z,12.23
2023-01-30T05:14:01.484Z,11.73
2023-01-30T05:16:29.175Z,12.80
2023-01-30T05:18:58.356Z,11.03
2023-01-30T05:21:31.447Z,11.83
2023-01-30T05:23:59.037Z,11.30
2023-01-30T05:26:28.299Z,11.63
2023-01-30T05:28:57.586Z,12.00
2023-01-30T05:31:25.398Z,11.97
2023-01-30T05:33:53.402Z,11.43
2023-01-30T05:36:23.402Z,12.17
2023-01-30T05:38:50.826Z,12.33
2023-01-30T05:41:18.449Z,12.50
2023-01-30T05:43:49.753Z,12.10
2023-01-30T05:46:17.551Z,13.70
2023-01-30T05:48:44.870Z,12.33
2023-01-30T05:51:22.212Z,12.67
2023-01-30T05:53:50.104Z,11.47
2023-01-30T05:56:19.356Z,12.00
2023-01-30T05:58:55.115Z,12.33
2023-01-30T06:01:23.674Z,12.20
2023-01-30T06:03:51.504Z,12.60
2023-01-30T06:06:19.403Z,12.77
2023-01-30T06:08:47.736Z,13.30
2023-01-30T06:11:21.281Z,13.00
2023-01-30T06:13:48.479Z,12.17
2023-01-30T06:16:18.534Z,12.90
2023-01-30T06:18:49.059Z,11.93
2023-01-30T06:21:17.188Z,12.93
2023-01-30T06:23:44.865Z,13.37
2023-01-30T06:26:14.564Z,13.17
2023-01-30T06:28:42.948Z,12.83
2023-01-30T06:31:10.540Z,13.47
2023-01-30T06:33:37.914Z,12.10
2023-01-30T06:36:05.933Z,12.50
2023-01-30T06:38:33.290Z,12.60
2023-01-30T06:41:00.769Z,12.30
2023-01-30T06:43:28.101Z,11.80
2023-01-30T06:45:58.137Z,12.00
2023-01-30T06:48:28.629Z,12.53
2023-01-30T06:50:59.014Z,12.97
2023-01-30T06:53:30.611Z,12.83
2023-01-30T06:56:02.626Z,11.90
2023-01-30T06:58:29.908Z,12.17
2023-01-30T07:00:57.172Z,11.33
2023-01-30T07:03:27.616Z,12.23
2023-01-30T07:05:54.927Z,11.50
2023-01-30T07:08:23.993Z,11.60
2023-01-30T07:10:51.847Z,11.37
2023-01-30T07:13:19.100Z,11.10
2023-01-30T07:15:49.154Z,11.37
2023-01-30T07:18:16.522Z,11.00
2023-01-30T07:20:49.018Z,10.33
2023-01-30T07:23:21.073Z,9.97
2023-01-30T07:25:48.385Z,8.83
2023-01-30T07:28:15.838Z,8.43
2023-01-30T07:30:43.605Z,8.57
2023-01-30T07:33:10.977Z,8.53
2023-01-30T07:35:38.851Z,8.20
2023-01-30T07:38:06.657Z,8.50
2023-01-30T07:40:34.250Z,8.50
2023-01-30T07:43:07.150Z,8.53
2023-01-30T07:45:49.182Z,8.07
2023-01-30T07:48:19.429Z,7.77
2023-01-30T07:50:47.151Z,7.77
2023-01-30T07:53:18.685Z,7.07
2023-01-30T07:55:46.516Z,7.03
2023-01-30T07:58:16.434Z,7.13
2023-01-30T08:00:45.005Z,6.83
2023-01-30T08:03:15.560Z,6.23
2023-01-30T08:05:44.506Z,6.03
2023-01-30T08:08:11.737Z,5.77
2023-01-30T08:10:39.154Z,5.27
2023-01-30T08:13:06.536Z,5.07
2023-01-30T08:15:33.948Z,5.00
2023-01-30T08:18:01.807Z,3.90
2023-01-30T08:20:29.614Z,4.57
2023-01-30T08:22:58.897Z,3.90
2023-01-30T08:25:27.634Z,3.73
2023-01-30T08:27:57.862Z,3.80
2023-01-30T08:30:25.393Z,3.80
2023-01-30T08:32:52.676Z,4.00
2023-01-30T08:35:20.017Z,3.40
2023-01-30T08:37:47.293Z,3.63
2023-01-30T08:40:15.508Z,3.80
2023-01-30T08:42:46.502Z,3.70
2023-01-30T08:45:14.086Z,3.30
2023-01-30T08:47:44.326Z,3.40
2023-01-30T08:50:11.926Z,3.43
2023-01-30T08:52:39.347Z,3.07
2023-01-30T08:55:07.131Z,3.13
2023-01-30T08:57:34.336Z,3.20
2023-01-30T09:00:01.965Z,3.37
2023-01-30T09:02:29.223Z,3.30
2023-01-30T09:04:56.491Z,2.90
2023-01-30T09:07:23.693Z,2.87
2023-01-30T09:09:50.856Z,3.37
2023-01-30T09:12:18.141Z,3.50
2023-01-30T09:14:45.369Z,3.90
2023-01-30T09:17:13.841Z,3.13
2023-01-30T09:19:41.208Z,3.00
2023-01-30T09:22:10.613Z,3.17
2023-01-30T09:24:37.766Z,2.83
2023-01-30T09:27:05.117Z,3.17
2023-01-30T09:29:35.199Z,3.47
2023-01-30T09:32:02.609Z,3.13
2023-01-30T09:34:29.868Z,3.03
2023-01-30T09:37:04.374Z,3.07
2023-01-30T09:39:32.062Z,3.50
2023-01-30T09:42:05.342Z,3.30
2023-01-30T09:45:02.034Z,3.33
2023-01-30T09:47:55.665Z,2.80
2023-01-30T09:54:46.156Z,3.30
2023-01-30T09:57:20.844Z,3.20
2023-01-30T10:00:18.898Z,2.70
2023-01-30T10:03:04.110Z,3.30
2023-01-30T10:05:53.982Z,2.83
2023-01-30T10:08:42.795Z,3.37
2023-01-30T10:11:30.687Z,3.20
2023-01-30T10:14:03.630Z,2.93
2023-01-30T10:16:57.407Z,3.17
2023-01-30T10:19:43.462Z,3.03
2023-01-30T10:22:31.863Z,2.80
2023-01-30T10:25:39.017Z,3.40
2023-01-30T10:28:17.283Z,2.93
2023-01-30T10:30:53.384Z,3.07
2023-01-30T10:33:33.973Z,3.00
2023-01-30T10:36:59.389Z,2.87
2023-01-30T10:40:08.280Z,3.10
2023-01-30T10:43:04.100Z,3.07
2023-01-30T10:46:02.635Z,3.10
2023-01-30T10:48:55.605Z,3.00
2023-01-30T10:52:05.936Z,3.00
2023-01-30T10:55:37.767Z,2.73
2023-01-30T10:59:07.304Z,2.63
2023-01-30T11:01:44.139Z,3.00
2023-01-30T11:12:25.508Z,2.90
2023-01-30T11:15:02.753Z,3.10
2023-01-30T11:17:42.052Z,2.90
2023-01-30T11:20:17.435Z,2.90
2023-01-30T11:23:05.055Z,2.90
2023-01-30T11:25:46.887Z,3.30
2023-01-30T11:28:17.514Z,2.80
2023-01-30T11:30:53.462Z,2.87
2023-01-30T11:33:23.339Z,2.73
2023-01-30T11:35:58.139Z,2.30
2023-01-30T11:38:30.998Z,2.90
2023-01-30T11:41:35.691Z,2.50
2023-01-30T11:44:11.407Z,3.03
2023-01-30T11:46:43.307Z,2.80
2023-01-30T11:51:31.856Z,2.53
2023-01-30T11:52:10.277Z,2.80
2023-01-30T11:54:45.334Z,2.33
2023-01-30T11:57:16.086Z,3.13
2023-01-30T12:00:01.652Z,2.83
2023-01-30T12:02:38.658Z,3.60
2023-01-30T12:05:33.138Z,2.80
2023-01-30T12:08:39.414Z,2.67
2023-01-30T12:11:47.983Z,2.73
2023-01-30T12:14:33.580Z,2.70
2023-01-30T12:17:26.624Z,3.10
2023-01-30T12:20:06.298Z,3.10
2023-01-30T12:23:13.290Z,2.63
2023-01-30T12:26:11.696Z,2.97
2023-01-30T12:29:21.752Z,2.73
2023-01-30T12:32:12.292Z,3.00
2023-01-30T12:34:40.012Z,2.77
2023-01-30T12:37:55.239Z,2.87
2023-01-30T12:41:04.743Z,3.10
2023-01-30T12:44:03.471Z,2.90
2023-01-30T12:47:06.074Z,3.13
2023-01-30T12:49:39.589Z,2.97
2023-01-30T12:52:49.950Z,2.83
2023-01-30T12:55:41.238Z,2.90
2023-01-30T12:58:32.754Z,3.17
2023-01-30T13:01:35.373Z,3.03
2023-01-30T13:04:25.047Z,3.30
2023-01-30T13:07:09.435Z,3.57
2023-01-30T13:09:55.034Z,3.07
2023-01-30T13:12:25.714Z,3.13
2023-01-30T13:15:21.142Z,2.93
2023-01-30T13:17:54.121Z,3.27
2023-01-30T13:20:51.542Z,3.13
2023-01-30T13:23:50.161Z,3.20
2023-01-30T13:26:27.324Z,3.33
2023-01-30T13:38:00.493Z,2.93
2023-01-30T13:40:40.207Z,2.93
2023-01-30T13:43:22.934Z,3.13
2023-01-30T13:45:52.974Z,3.03
2023-01-30T13:48:44.975Z,3.17
2023-01-30T13:51:24.437Z,2.80
2023-01-30T13:54:09.654Z,2.80
2023-01-30T13:57:07.392Z,3.60
2023-01-30T14:00:28.277Z,3.50
2023-01-30T14:03:34.643Z,3.20
2023-01-30T14:06:06.057Z,3.13
2023-01-30T14:08:55.086Z,2.97
2023-01-30T14:11:58.525Z,3.43
2023-01-30T14:14:40.490Z,3.47
2023-01-30T14:17:16.711Z,3.00
2023-01-30T14:20:01.446Z,3.43
2023-01-30T14:22:57.205Z,3.50
2023-01-30T14:25:30.670Z,3.10
2023-01-30T14:28:00.991Z,3.33
2023-01-30T14:30:47.944Z,3.70
2023-01-30T14:33:24.278Z,3.20
2023-01-30T14:36:15.993Z,3.30
2023-01-30T14:39:17.637Z,3.10
2023-01-30T14:41:45.041Z,3.17
2023-01-30T14:44:33.041Z,3.40
2023-01-30T14:47:00.661Z,3.47
2023-01-30T14:49:48.213Z,2.90
2023-01-30T14:52:47.130Z,3.10
2023-01-30T14:55:23.811Z,3.03
2023-01-30T14:57:58.034Z,3.50
2023-01-30T15:00:38.095Z,3.60
2023-01-30T15:03:22.714Z,3.00
2023-01-30T15:05:50.519Z,3.20
2023-01-30T15:08:26.560Z,3.37
2023-01-30T15:11:24.207Z,2.90
2023-01-30T15:14:30.049Z,3.23
2023-01-30T15:17:45.695Z,3.53
2023-01-30T15:20:43.015Z,3.47
2023-01-30T15:23:54.267Z,3.37
2023-01-30T15:27:23.959Z,3.70
2023-01-30T15:30:26.434Z,3.43
2023-01-30T15:33:29.339Z,3.03
2023-01-30T15:35:58.209Z,3.33
2023-01-30T15:38:34.914Z,3.33
2023-01-30T15:41:06.723Z,3.37
2023-01-30T15:44:01.319Z,3.43
2023-01-30T15:46:52.470Z,4.17
2023-01-30T15:49:38.229Z,3.23
2023-01-30T15:52:15.303Z,3.57
2023-01-30T15:54:52.074Z,3.50
2023-01-30T15:57:36.044Z,3.27
2023-01-30T16:00:09.457Z,3.63
2023-01-30T16:02:42.549Z,3.97
2023-01-30T16:05:25.133Z,3.87
2023-01-30T16:07:56.452Z,3.40
2023-01-30T16:10:31.045Z,3.40
2023-01-30T16:13:03.520Z,3.60
2023-01-30T16:15:55.354Z,3.47
2023-01-30T16:18:26.141Z,3.70
2023-01-30T16:21:02.356Z,3.30
2023-01-30T16:23:59.579Z,3.47
2023-01-30T16:26:27.424Z,3.40
2023-01-30T16:29:07.027Z,3.63
2023-01-30T16:31:41.822Z,3.17
2023-01-30T16:34:38.359Z,3.73
2023-01-30T16:37:07.936Z,2.90
2023-01-30T16:39:38.616Z,3.33
2023-01-30T16:42:28.531Z,3.10
2023-01-30T16:45:21.291Z,3.37
2023-01-30T16:47:49.148Z,3.30
2023-01-30T16:50:23.211Z,3.27
2023-01-30T16:52:56.042Z,3.30
2023-01-30T16:55:27.611Z,3.93
2023-01-30T16:58:03.022Z,3.23
2023-01-30T17:00:40.291Z,3.77
2023-01-30T17:03:29.906Z,4.20
2023-01-30T17:06:15.313Z,4.03
2023-01-30T17:08:57.966Z,4.40
2023-01-30T17:11:45.832Z,4.80
2023-01-30T17:14:32.999Z,4.13
2023-01-30T17:17:09.572Z,4.40
2023-01-30T17:19:39.971Z,3.77
2023-01-30T17:22:20.762Z,4.80
2023-01-30T17:24:49.520Z,4.30
2023-01-30T17:27:17.060Z,4.10
2023-01-30T17:29:46.134Z,4.40
2023-01-30T17:32:16.933Z,3.77
2023-01-30T17:34:44.363Z,3.70
2023-01-30T17:37:21.629Z,4.07
2023-01-30T17:39:50.265Z,4.37
2023-01-30T17:42:22.488Z,3.57
2023-01-30T17:44:50.286Z,3.47
2023-01-30T17:47:17.866Z,3.57
2023-01-30T17:49:45.127Z,4.10
2023-01-30T17:52:14.185Z,4.03
2023-01-30T17:54:41.428Z,3.83
2023-01-30T17:57:13.099Z,3.93
2023-01-30T17:59:40.444Z,4.00
2023-01-30T18:02:10.666Z,4.00
2023-01-30T18:04:40.112Z,4.53
2023-01-30T18:07:13.616Z,4.23
2023-01-30T18:09:41.316Z,3.77
2023-01-30T18:12:08.553Z,4.43
2023-01-30T18:14:35.886Z,3.83
2023-01-30T18:17:03.519Z,4.00
2023-01-30T18:19:31.896Z,4.60
2023-01-30T18:21:59.430Z,4.50
2023-01-30T18:24:26.831Z,4.70
2023-01-30T18:26:54.180Z,3.93
2023-01-30T18:29:21.566Z,3.70
2023-01-30T18:31:48.898Z,3.50
2023-01-30T18:34:16.234Z,3.90
2023-01-30T18:36:43.412Z,4.57
2023-01-30T18:39:12.823Z,4.63
2023-01-30T18:41:40.112Z,4.30
2023-01-30T18:44:07.882Z,3.50
2023-01-30T18:46:37.628Z,3.17
2023-01-30T18:49:08.456Z,3.90
2023-01-30T18:51:36.017Z,4.07
2023-01-30T18:54:03.547Z,3.40
2023-01-30T18:56:33.921Z,3.20
2023-01-30T18:59:04.691Z,3.77
2023-01-30T19:01:42.603Z,3.57
2023-01-30T19:04:11.781Z,3.07
2023-01-30T19:06:43.530Z,3.70
2023-01-30T19:09:18.389Z,3.87
2023-01-30T19:12:04.109Z,4.23
2023-01-30T19:14:31.609Z,4.63
2023-01-30T19:16:58.789Z,6.60
2023-01-30T19:19:26.103Z,5.60
2023-01-30T19:21:53.604Z,5.70
2023-01-30T19:24:21.348Z,4.80
2023-01-30T19:26:48.840Z,4.37
2023-01-30T19:29:18.439Z,3.50
2023-01-30T19:31:48.792Z,3.67
2023-01-30T19:34:16.399Z,3.03
2023-01-30T19:36:43.621Z,2.60
2023-01-30T19:39:11.464Z,2.47
2023-01-30T19:41:39.270Z,3.23
2023-01-30T19:52:27.077Z,2.93
2023-01-30T19:54:54.332Z,2.30
2023-01-30T19:57:21.631Z,3.00
2023-01-30T19:59:48.872Z,2.23
2023-01-30T20:02:16.137Z,2.57
2023-01-30T20:04:43.355Z,2.27
2023-01-30T20:07:13.438Z,2.60
2023-01-30T20:09:40.737Z,2.60
2023-01-30T20:12:10.180Z,2.53
2023-01-30T20:14:37.435Z,2.50
2023-01-30T20:17:04.698Z,2.47
2023-01-30T20:19:32.010Z,2.93
2023-01-30T20:22:00.011Z,2.70
2023-01-30T20:24:27.592Z,3.50
2023-01-30T20:26:54.815Z,3.47
2023-01-30T20:29:24.990Z,3.47
2023-01-30T20:31:55.871Z,4.43
2023-01-30T20:34:25.108Z,4.23
2023-01-30T20:36:52.598Z,3.53
2023-01-30T20:39:21.842Z,3.67
2023-01-30T20:41:49.367Z,3.80
2023-01-30T20:44:16.743Z,3.87
2023-01-30T20:46:47.084Z,3.73
2023-01-30T20:49:20.911Z,4.33
2023-01-30T20:51:52.825Z,4.47
2023-01-30T20:54:23.242Z,4.80
2023-01-30T20:56:53.808Z,4.37
2023-01-30T20:59:24.551Z,4.97
2023-01-30T21:01:52.751Z,3.83
2023-01-30T21:04:24.740Z,4.70
2023-01-30T21:06:52.757Z,4.10
2023-01-30T21:09:22.921Z,4.77
2023-01-30T21:11:53.464Z,4.50
2023-01-30T21:14:21.025Z,5.00
2023-01-30T21:16:49.066Z,5.47
2023-01-30T21:19:18.011Z,5.30
2023-01-30T21:21:53.579Z,5.40
2023-01-30T21:24:28.767Z,4.87
2023-01-30T21:26:57.393Z,4.40
2023-01-30T21:29:27.627Z,4.87
2023-01-30T21:31:57.557Z,4.47
2023-01-30T21:34:25.910Z,4.80
2023-01-30T21:37:11.688Z,4.57
2023-01-30T21:39:57.791Z,4.60
2023-01-30T21:42:43.480Z,4.83
2023-01-30T21:45:10.891Z,4.67
2023-01-30T21:47:38.689Z,4.30
2023-01-30T21:50:06.591Z,4.47
2023-01-30T21:52:33.820Z,4.03
2023-01-30T21:55:01.061Z,4.20
2023-01-30T21:57:28.270Z,4.60
2023-01-30T21:59:55.655Z,4.60
2023-01-30T22:02:22.965Z,4.60
2023-01-30T22:04:50.383Z,4.20
2023-01-30T22:07:20.564Z,4.50
2023-01-30T22:09:49.243Z,4.33
2023-01-30T22:12:16.628Z,4.83
2023-01-30T22:17:24.928Z,4.70
2023-01-30T22:19:52.815Z,4.53
2023-01-30T22:22:25.552Z,4.03
2023-01-30T22:24:52.796Z,4.07
2023-01-30T22:27:20.106Z,4.40
2023-01-30T22:29:47.400Z,4.57
2023-01-30T22:32:14.658Z,4.70
2023-01-30T22:34:41.830Z,4.27
2023-01-30T22:37:09.122Z,4.23
2023-01-30T22:39:36.380Z,4.03
2023-01-30T22:42:46.023Z,4.40
2023-01-30T22:45:13.162Z,4.60
2023-01-30T22:47:40.330Z,4.33
2023-01-30T22:50:08.262Z,4.10
2023-01-30T22:52:35.807Z,4.67
2023-01-30T22:55:03.170Z,4.60
2023-01-30T22:57:30.362Z,3.97
2023-01-30T22:59:57.628Z,4.37
2023-01-30T23:02:24.919Z,4.43
2023-01-30T23:04:52.067Z,4.73
2023-01-30T23:07:21.115Z,5.23
2023-01-30T23:09:48.494Z,4.20
2023-01-30T23:12:34.487Z,4.00
2023-01-30T23:15:01.895Z,4.37
2023-01-30T23:17:47.632Z,4.17
2023-01-30T23:20:14.888Z,4.03
2023-01-30T23:22:42.102Z,4.40
2023-01-30T23:25:10.898Z,4.00
2023-01-30T23:27:38.170Z,3.80
2023-01-30T23:30:06.267Z,4.37
2023-01-30T23:32:33.521Z,3.97
2023-01-30T23:35:00.781Z,4.17
2023-01-30T23:37:46.501Z,4.17
2023-01-30T23:40:13.833Z,3.20
2023-01-30T23:42:41.148Z,3.87
2023-01-30T23:45:09.399Z,3.70
2023-01-30T23:47:41.932Z,3.70
2023-01-30T23:50:10.317Z,3.73
2023-01-30T23:52:37.585Z,4.33
2023-01-30T23:55:05.739Z,4.30
2023-01-30T23:57:32.850Z,4.50
